createdAt,value
2019-05-05T00:02:04.473Z,10.43
2019-05-05T00:04:50.714Z,10.80
2019-05-05T00:07:25.410Z,11.18
2019-05-05T00:09:55.088Z,11.63
2019-05-05T00:12:34.784Z,9.90
2019-05-05T00:15:24.957Z,14.63
2019-05-05T00:17:55.023Z,13.20
2019-05-05T00:20:25.069Z,13.75
2019-05-05T00:22:54.684Z,10.82
2019-05-05T00:25:24.938Z,14.73
2019-05-05T00:27:54.581Z,9.70
2019-05-05T00:30:24.946Z,13.45
2019-05-05T00:32:54.894Z,11.70
2019-05-05T00:35:25.265Z,11.05
2019-05-05T00:37:54.511Z,13.93
2019-05-05T00:40:24.802Z,11.70
2019-05-05T00:42:54.772Z,11.30
2019-05-05T00:45:25.267Z,13.85
2019-05-05T00:48:04.674Z,16.90
2019-05-05T00:50:34.413Z,14.15
2019-05-05T00:53:05.252Z,13.18
2019-05-05T00:55:34.978Z,15.15
2019-05-05T00:58:05.268Z,13.72
2019-05-05T01:00:45.568Z,17.45
2019-05-05T01:03:15.299Z,22.25
2019-05-05T01:05:50.510Z,14.60
2019-05-05T01:08:21.472Z,15.32
2019-05-05T01:10:50.442Z,15.98
2019-05-05T01:13:19.392Z,17.45
2019-05-05T01:15:48.325Z,15.60
2019-05-05T01:18:17.624Z,17.50
2019-05-05T01:20:46.596Z,19.17
2019-05-05T01:23:15.673Z,13.90
2019-05-05T01:25:47.118Z,13.85
2019-05-05T01:28:16.296Z,14.65
2019-05-05T01:30:47.648Z,22.95
2019-05-05T01:33:40.175Z,14.93
2019-05-05T01:36:09.265Z,14.53
2019-05-05T01:38:44.740Z,17.35
2019-05-05T01:41:20.638Z,16.02
2019-05-05T01:43:49.889Z,15.28
2019-05-05T01:46:18.986Z,17.20
2019-05-05T01:48:47.983Z,17.30
2019-05-05T01:51:17.148Z,19.73
2019-05-05T01:53:46.149Z,17.37
2019-05-05T01:56:15.471Z,16.10
2019-05-05T01:58:45.081Z,21.02
2019-05-05T02:01:15.264Z,15.30
2019-05-05T02:03:44.798Z,12.95
2019-05-05T02:06:14.275Z,14.28
2019-05-05T02:08:45.278Z,16.23
2019-05-05T02:11:15.602Z,14.00
2019-05-05T02:13:45.122Z,17.80
2019-05-05T02:16:15.076Z,14.15
2019-05-05T02:18:45.065Z,15.63
2019-05-05T02:21:14.320Z,14.58
2019-05-05T02:23:45.176Z,14.90
2019-05-05T02:26:15.291Z,19.45
2019-05-05T02:28:54.154Z,14.53
2019-05-05T02:31:29.891Z,14.25
2019-05-05T02:33:58.808Z,19.77
2019-05-05T02:36:27.713Z,16.42
2019-05-05T02:38:56.876Z,16.35
2019-05-05T02:41:25.946Z,17.12
2019-05-05T02:43:55.868Z,16.20
2019-05-05T02:46:35.831Z,14.15
2019-05-05T02:49:05.573Z,19.12
2019-05-05T02:51:36.007Z,20.17
2019-05-05T02:54:05.168Z,18.15
2019-05-05T02:56:43.625Z,14.47
2019-05-05T02:59:19.131Z,14.73
2019-05-05T03:02:10.295Z,14.25
2019-05-05T03:04:40.009Z,15.80
2019-05-05T03:07:10.504Z,15.48
2019-05-05T03:09:40.561Z,13.72
2019-05-05T03:12:11.156Z,18.67
2019-05-05T03:14:41.682Z,20.45
2019-05-05T03:17:14.339Z,18.52
2019-05-05T03:19:44.478Z,19.12
2019-05-05T03:22:14.313Z,19.67
2019-05-05T03:24:44.654Z,15.45
2019-05-05T03:27:14.319Z,15.13
2019-05-05T03:29:44.224Z,15.88
2019-05-05T03:32:16.164Z,18.07
2019-05-05T03:34:44.606Z,17.15
2019-05-05T03:37:14.579Z,18.48
2019-05-05T03:39:47.748Z,18.77
2019-05-05T03:42:47.671Z,19.57
2019-05-05T03:45:29.675Z,13.05
2019-05-05T03:47:58.670Z,14.87
2019-05-05T03:50:27.933Z,18.40
2019-05-05T03:52:56.818Z,16.20
2019-05-05T03:55:25.580Z,14.03
2019-05-05T03:57:55.204Z,15.20
2019-05-05T04:00:45.539Z,18.65
2019-05-05T04:03:14.719Z,17.67
2019-05-05T04:05:53.758Z,15.70
2019-05-05T04:08:23.538Z,18.48
2019-05-05T04:10:54.481Z,21.17
2019-05-05T04:13:24.264Z,15.65
2019-05-05T04:16:14.340Z,15.95
2019-05-05T04:18:50.039Z,17.87
2019-05-05T04:21:30.379Z,17.02
2019-05-05T04:23:49.344Z,14.33
2019-05-05T04:26:18.334Z,12.80
2019-05-05T04:28:47.355Z,15.55
2019-05-05T04:31:16.413Z,12.60
2019-05-05T04:33:45.218Z,10.28
2019-05-05T04:36:14.550Z,12.20
2019-05-05T04:38:43.956Z,11.00
2019-05-05T04:41:14.010Z,10.93
2019-05-05T04:43:44.204Z,13.43
2019-05-05T04:46:14.106Z,11.40
2019-05-05T04:48:57.542Z,11.03
2019-05-05T04:51:43.445Z,12.05
2019-05-05T04:54:14.052Z,12.88
2019-05-05T04:56:44.364Z,10.80
2019-05-05T04:59:14.402Z,8.25
2019-05-05T05:01:44.032Z,8.88
2019-05-05T05:04:35.363Z,7.35
2019-05-05T05:07:04.723Z,8.00
2019-05-05T05:09:34.167Z,8.68
2019-05-05T05:12:04.030Z,6.72
2019-05-05T05:14:33.816Z,7.53
2019-05-05T05:17:04.402Z,6.10
2019-05-05T05:19:33.566Z,6.85
2019-05-05T05:22:04.844Z,7.10
2019-05-05T05:24:34.359Z,6.30
2019-05-05T05:27:05.058Z,7.53
2019-05-05T05:29:34.516Z,7.17
2019-05-05T05:32:04.278Z,6.37
2019-05-05T05:34:34.396Z,6.22
2019-05-05T05:37:04.194Z,5.40
2019-05-05T05:39:43.940Z,5.72
2019-05-05T05:42:13.746Z,5.00
2019-05-05T05:45:04.053Z,5.22
2019-05-05T05:47:53.688Z,6.35
2019-05-05T05:50:26.615Z,5.40
2019-05-05T05:52:55.606Z,4.90
2019-05-05T05:55:24.620Z,4.67
2019-05-05T05:57:54.279Z,4.87
2019-05-05T06:00:23.746Z,4.35
2019-05-05T06:02:54.426Z,5.95
2019-05-05T06:05:23.765Z,4.80
2019-05-05T06:07:54.465Z,5.62
2019-05-05T06:10:27.149Z,4.67
2019-05-05T06:12:55.147Z,5.05
2019-05-05T06:15:24.549Z,4.80
2019-05-05T06:17:54.021Z,4.80
2019-05-05T06:20:23.825Z,4.45
2019-05-05T06:22:53.523Z,4.22
2019-05-05T06:25:26.232Z,4.17
2019-05-05T06:27:54.099Z,4.60
2019-05-05T06:30:24.357Z,4.15
2019-05-05T06:32:54.431Z,4.22
2019-05-05T06:35:24.461Z,4.35
2019-05-05T06:37:54.244Z,4.70
2019-05-05T06:40:31.559Z,4.60
2019-05-05T06:43:16.655Z,3.20
2019-05-05T06:45:49.688Z,4.35
2019-05-05T06:48:18.455Z,4.17
2019-05-05T06:50:47.223Z,4.30
2019-05-05T06:53:16.302Z,3.98
2019-05-05T06:55:45.422Z,3.83
2019-05-05T06:58:14.430Z,4.75
2019-05-05T07:00:44.213Z,4.85
2019-05-05T07:03:13.898Z,4.58
2019-05-05T07:05:43.694Z,2.90
2019-05-05T07:08:13.825Z,4.03
2019-05-05T07:10:44.461Z,3.97
2019-05-05T07:13:13.999Z,3.40
2019-05-05T07:15:43.778Z,2.90
2019-05-05T07:18:14.231Z,3.10
2019-05-05T07:20:44.081Z,3.43
2019-05-05T07:23:14.500Z,3.90
2019-05-05T07:25:45.919Z,3.55
2019-05-05T07:28:14.835Z,3.20
2019-05-05T07:30:44.251Z,3.12
2019-05-05T07:33:14.863Z,2.70
2019-05-05T07:35:59.404Z,2.85
2019-05-05T07:38:24.396Z,3.07
2019-05-05T07:40:54.483Z,2.90
2019-05-05T07:43:24.015Z,3.17
2019-05-05T07:45:54.033Z,2.75
2019-05-05T07:48:24.623Z,2.92
2019-05-05T07:51:01.552Z,3.60
2019-05-05T07:53:24.516Z,3.37
2019-05-05T07:55:54.162Z,4.45
2019-05-05T07:58:24.260Z,3.02
2019-05-05T08:00:54.130Z,2.95
2019-05-05T08:03:23.681Z,3.45
2019-05-05T08:05:54.364Z,2.95
2019-05-05T08:08:24.421Z,2.87
2019-05-05T08:10:54.170Z,3.10
2019-05-05T08:13:24.356Z,3.93
2019-05-05T08:15:59.826Z,3.30
2019-05-05T08:18:47.464Z,3.07
2019-05-05T08:21:16.449Z,3.70
2019-05-05T08:24:05.806Z,2.70
2019-05-05T08:26:49.828Z,2.12
2019-05-05T08:29:40.236Z,2.63
2019-05-05T08:32:17.594Z,1.95
2019-05-05T08:34:56.854Z,3.35
2019-05-05T08:37:17.486Z,2.40
2019-05-05T08:39:46.828Z,2.60
2019-05-05T08:42:15.641Z,2.10
2019-05-05T08:44:44.907Z,2.97
2019-05-05T08:47:14.166Z,2.83
2019-05-05T08:49:44.219Z,2.60
2019-05-05T08:52:14.523Z,2.13
2019-05-05T08:54:44.651Z,1.87
2019-05-05T08:57:14.667Z,2.37
2019-05-05T08:59:43.996Z,2.90
2019-05-05T09:02:15.000Z,1.90
2019-05-05T09:04:44.689Z,2.62
2019-05-05T09:07:15.876Z,2.27
2019-05-05T09:09:44.935Z,2.43
2019-05-05T09:12:14.164Z,2.63
2019-05-05T09:14:44.894Z,1.70
2019-05-05T09:17:13.831Z,2.03
2019-05-05T09:19:44.737Z,1.77
2019-05-05T09:22:13.990Z,1.93
2019-05-05T09:25:08.623Z,1.73
2019-05-05T09:27:44.886Z,1.60
2019-05-05T09:30:17.176Z,1.73
2019-05-05T09:32:47.737Z,2.00
2019-05-05T09:35:16.926Z,2.03
2019-05-05T09:37:46.030Z,2.60
2019-05-05T09:40:18.008Z,3.72
2019-05-05T09:42:46.812Z,2.47
2019-05-05T09:45:16.020Z,2.00
2019-05-05T09:47:45.067Z,1.67
2019-05-05T09:50:14.471Z,2.02
2019-05-05T09:52:44.340Z,2.60
2019-05-05T09:55:13.953Z,1.70
2019-05-05T09:57:43.792Z,2.10
2019-05-05T10:00:14.179Z,1.80
2019-05-05T10:02:44.126Z,1.93
2019-05-05T10:05:14.542Z,1.50
2019-05-05T10:07:44.051Z,2.25
2019-05-05T10:10:13.886Z,2.92
2019-05-05T10:12:44.580Z,2.05
2019-05-05T10:15:13.965Z,2.20
2019-05-05T10:17:43.201Z,1.62
2019-05-05T10:20:14.545Z,3.80
2019-05-05T10:22:43.891Z,1.33
2019-05-05T10:25:50.329Z,1.47
2019-05-05T10:28:19.180Z,1.37
2019-05-05T10:30:48.420Z,1.93
2019-05-05T10:33:18.634Z,2.30
2019-05-05T10:35:48.873Z,3.37
2019-05-05T10:38:17.843Z,1.40
2019-05-05T10:40:48.320Z,1.00
2019-05-05T10:43:17.309Z,1.63
2019-05-05T10:45:46.299Z,1.50
2019-05-05T10:48:15.227Z,1.97
2019-05-05T10:50:44.524Z,1.87
2019-05-05T10:53:13.783Z,2.15
2019-05-05T10:55:44.848Z,1.65
2019-05-05T10:58:13.873Z,1.80
2019-05-05T11:00:56.919Z,1.80
2019-05-05T11:03:25.868Z,1.50
2019-05-05T11:05:56.117Z,1.65
2019-05-05T11:08:25.422Z,1.60
2019-05-05T11:10:56.960Z,1.75
2019-05-05T11:13:27.104Z,1.50
2019-05-05T11:15:56.197Z,3.08
2019-05-05T11:18:25.454Z,1.92
2019-05-05T11:21:03.897Z,1.50
2019-05-05T11:23:44.636Z,2.05
2019-05-05T11:26:16.538Z,1.80
2019-05-05T11:28:59.261Z,1.57
2019-05-05T11:31:30.486Z,1.50
2019-05-05T11:34:11.400Z,2.22
2019-05-05T11:36:54.369Z,1.10
2019-05-05T11:39:25.127Z,2.80
2019-05-05T11:41:59.405Z,1.98
2019-05-05T11:44:30.914Z,1.62
2019-05-05T11:47:04.821Z,1.37
2019-05-05T11:49:37.394Z,1.87
2019-05-05T11:52:07.066Z,2.20
2019-05-05T11:54:38.603Z,3.33
2019-05-05T11:57:07.883Z,2.10
2019-05-05T11:59:49.863Z,1.50
2019-05-05T12:02:24.309Z,1.80
2019-05-05T12:04:54.044Z,2.65
2019-05-05T12:07:23.740Z,1.82
2019-05-05T12:09:57.130Z,2.35
2019-05-05T12:12:26.710Z,1.65
2019-05-05T12:14:55.994Z,1.80
2019-05-05T12:17:34.845Z,2.52
2019-05-05T12:20:08.303Z,1.75
2019-05-05T12:22:37.519Z,1.55
2019-05-05T12:25:28.418Z,2.30
2019-05-05T12:28:04.474Z,2.33
2019-05-05T12:30:33.867Z,1.45
2019-05-05T12:33:04.656Z,1.65
2019-05-05T12:35:48.671Z,1.72
2019-05-05T12:38:18.497Z,1.80
2019-05-05T12:40:47.360Z,1.60
2019-05-05T12:43:16.185Z,1.55
2019-05-05T12:45:47.668Z,1.92
2019-05-05T12:48:21.348Z,2.47
2019-05-05T12:50:50.195Z,2.55
2019-05-05T12:53:19.014Z,1.20
2019-05-05T12:55:48.507Z,1.65
2019-05-05T12:58:17.288Z,1.40
2019-05-05T13:00:54.088Z,1.17
2019-05-05T13:03:23.991Z,1.35
2019-05-05T13:05:53.552Z,1.50
2019-05-05T13:08:23.460Z,2.35
2019-05-05T13:10:53.476Z,1.80
2019-05-05T13:13:22.363Z,2.25
2019-05-05T13:15:51.236Z,2.40
2019-05-05T13:18:20.063Z,2.65
2019-05-05T13:20:59.331Z,2.62
2019-05-05T13:23:37.762Z,2.00
2019-05-05T13:26:28.877Z,2.05
2019-05-05T13:28:57.654Z,2.62
2019-05-05T13:31:26.980Z,1.98
2019-05-05T13:33:55.952Z,4.22
2019-05-05T13:36:24.730Z,2.27
2019-05-05T13:38:54.587Z,1.98
2019-05-05T13:41:23.508Z,3.42
2019-05-05T13:43:53.952Z,1.90
2019-05-05T13:46:28.020Z,5.20
2019-05-05T13:49:18.088Z,1.92
2019-05-05T13:51:46.888Z,3.35
2019-05-05T13:54:15.815Z,2.20
2019-05-05T13:56:44.716Z,2.25
2019-05-05T13:59:14.062Z,2.08
2019-05-05T14:01:44.780Z,3.55
2019-05-05T14:04:13.873Z,2.00
2019-05-05T14:06:44.458Z,2.27
2019-05-05T14:09:13.865Z,2.08
2019-05-05T14:11:44.559Z,2.25
2019-05-05T14:14:13.924Z,1.98
2019-05-05T14:16:44.609Z,2.45
2019-05-05T14:19:14.650Z,2.40
2019-05-05T14:21:44.579Z,2.40
2019-05-05T14:24:19.809Z,6.72
2019-05-05T14:26:48.828Z,2.50
2019-05-05T14:29:39.023Z,2.02
2019-05-05T14:32:08.936Z,3.08
2019-05-05T14:34:39.483Z,5.08
2019-05-05T14:37:26.181Z,2.70
2019-05-05T14:39:55.183Z,2.92
2019-05-05T14:42:23.987Z,2.85
2019-05-05T14:44:54.575Z,2.35
2019-05-05T14:47:24.456Z,2.67
2019-05-05T14:49:54.100Z,3.10
2019-05-05T14:52:24.638Z,2.02
2019-05-05T14:54:54.544Z,2.00
2019-05-05T14:57:27.985Z,3.00
2019-05-05T14:59:57.292Z,2.12
2019-05-05T15:02:28.210Z,2.10
2019-05-05T15:05:29.038Z,3.05
2019-05-05T15:08:09.652Z,2.37
2019-05-05T15:10:59.497Z,2.15
2019-05-05T15:13:28.556Z,1.80
2019-05-05T15:15:58.618Z,2.12
2019-05-05T15:18:27.634Z,2.35
2019-05-05T15:20:56.584Z,2.55
2019-05-05T15:23:25.601Z,2.98
2019-05-05T15:25:54.812Z,3.15
2019-05-05T15:28:24.565Z,3.70
2019-05-05T15:30:54.498Z,3.55
2019-05-05T15:33:24.368Z,1.85
2019-05-05T15:35:53.934Z,3.27
2019-05-05T15:38:24.443Z,2.80
2019-05-05T15:40:54.760Z,2.30
2019-05-05T15:43:24.410Z,2.17
2019-05-05T15:45:55.550Z,2.47
2019-05-05T15:48:24.442Z,2.47
2019-05-05T15:50:54.633Z,3.00
2019-05-05T15:53:23.728Z,1.60
2019-05-05T15:55:54.008Z,2.33
2019-05-05T15:58:23.609Z,2.50
2019-05-05T16:00:53.791Z,2.10
2019-05-05T16:03:22.881Z,1.95
2019-05-05T16:05:51.773Z,2.72
2019-05-05T16:08:20.712Z,1.67
2019-05-05T16:10:49.678Z,2.02
2019-05-05T16:13:18.543Z,2.52
2019-05-05T16:16:00.363Z,2.95
2019-05-05T16:18:34.200Z,1.70
2019-05-05T16:21:26.318Z,4.35
2019-05-05T16:24:00.655Z,2.37
2019-05-05T16:26:29.443Z,1.70
2019-05-05T16:28:58.435Z,2.00
2019-05-05T16:31:27.877Z,2.00
2019-05-05T16:33:56.772Z,2.37
2019-05-05T16:36:25.575Z,2.15
2019-05-05T16:38:54.395Z,3.15
2019-05-05T16:41:23.813Z,2.50
2019-05-05T16:43:53.423Z,2.20
2019-05-05T16:46:23.908Z,2.20
2019-05-05T16:48:54.142Z,2.30
2019-05-05T16:51:27.621Z,2.12
2019-05-05T16:53:58.194Z,2.40
2019-05-05T16:56:27.365Z,2.35
2019-05-05T16:58:56.545Z,2.50
2019-05-05T17:01:27.423Z,2.70
2019-05-05T17:04:08.470Z,2.15
2019-05-05T17:06:29.515Z,1.90
2019-05-05T17:08:59.506Z,2.40
2019-05-05T17:11:28.628Z,1.77
2019-05-05T17:14:25.886Z,2.42
2019-05-05T17:17:17.307Z,2.65
2019-05-05T17:20:00.451Z,2.67
2019-05-05T17:22:34.031Z,2.02
2019-05-05T17:25:05.086Z,2.30
2019-05-05T17:27:47.068Z,2.27
2019-05-05T17:30:05.052Z,2.15
2019-05-05T17:32:34.529Z,2.62
2019-05-05T17:35:03.897Z,2.30
2019-05-05T17:37:33.547Z,1.92
2019-05-05T17:40:12.446Z,2.85
2019-05-05T17:42:59.040Z,3.52
2019-05-05T17:45:34.374Z,2.72
2019-05-05T17:48:14.802Z,2.30
2019-05-05T17:50:55.829Z,2.02
2019-05-05T17:53:54.594Z,3.58
2019-05-05T17:56:23.838Z,2.67
2019-05-05T17:58:53.788Z,2.40
2019-05-05T18:01:24.428Z,2.40
2019-05-05T18:03:54.529Z,2.45
2019-05-05T18:06:34.386Z,2.92
2019-05-05T18:09:15.305Z,1.75
2019-05-05T18:12:01.925Z,2.37
2019-05-05T18:14:33.436Z,1.75
2019-05-05T18:17:04.253Z,3.85
2019-05-05T18:19:34.018Z,2.50
2019-05-05T18:22:03.454Z,2.05
2019-05-05T18:24:33.708Z,2.27
2019-05-05T18:27:04.575Z,2.58
2019-05-05T18:29:34.003Z,2.45
2019-05-05T18:32:04.314Z,3.75
2019-05-05T18:34:34.990Z,2.10
2019-05-05T18:37:04.079Z,2.15
2019-05-05T18:39:34.265Z,3.02
2019-05-05T18:42:08.663Z,2.90
2019-05-05T18:44:56.378Z,3.67
2019-05-05T18:47:26.640Z,1.77
2019-05-05T18:49:55.823Z,2.47
2019-05-05T18:52:24.726Z,3.00
2019-05-05T18:54:54.419Z,2.12
2019-05-05T18:57:24.724Z,2.62
2019-05-05T18:59:54.257Z,3.47
2019-05-05T19:02:34.789Z,2.22
2019-05-05T19:05:16.083Z,1.70
2019-05-05T19:07:55.615Z,3.65
2019-05-05T19:10:19.368Z,2.55
2019-05-05T19:12:50.847Z,2.35
2019-05-05T19:15:24.426Z,3.08
2019-05-05T19:17:53.540Z,2.22
2019-05-05T19:20:34.996Z,3.27
2019-05-05T19:23:05.270Z,4.40
2019-05-05T19:25:35.521Z,4.15
2019-05-05T19:28:04.797Z,3.52
2019-05-05T19:30:36.034Z,2.85
2019-05-05T19:33:04.870Z,4.42
2019-05-05T19:35:41.899Z,4.37
2019-05-05T19:38:05.030Z,3.02
2019-05-05T19:40:34.102Z,2.62
2019-05-05T19:43:04.769Z,4.55
2019-05-05T19:45:34.421Z,4.37
2019-05-05T19:48:05.661Z,3.45
2019-05-05T19:51:04.557Z,3.35
2019-05-05T19:53:35.202Z,4.37
2019-05-05T19:56:04.079Z,4.15
2019-05-05T19:58:34.020Z,4.92
2019-05-05T20:01:05.255Z,3.77
2019-05-05T20:03:35.163Z,3.42
2019-05-05T20:06:05.054Z,3.40
2019-05-05T20:08:40.909Z,5.25
2019-05-05T20:11:04.957Z,3.22
2019-05-05T20:13:33.960Z,3.33
2019-05-05T20:16:11.461Z,5.70
2019-05-05T20:18:40.660Z,3.00
2019-05-05T20:21:09.398Z,4.85
2019-05-05T20:23:38.533Z,3.33
2019-05-05T20:26:07.464Z,5.47
2019-05-05T20:28:36.334Z,3.50
2019-05-05T20:31:05.229Z,5.45
2019-05-05T20:33:46.788Z,3.70
2019-05-05T20:36:18.830Z,3.92
2019-05-05T20:38:49.800Z,5.72
2019-05-05T20:41:20.195Z,4.65
2019-05-05T20:43:49.367Z,3.60
2019-05-05T20:46:18.685Z,6.45
2019-05-05T20:48:48.081Z,3.27
2019-05-05T20:51:17.035Z,5.92
2019-05-05T20:53:48.892Z,5.10
2019-05-05T20:56:16.529Z,3.60
2019-05-05T20:58:45.731Z,4.92
2019-05-05T21:01:14.714Z,3.40
2019-05-05T21:03:43.566Z,4.00
2019-05-05T21:06:13.890Z,4.62
2019-05-05T21:08:43.970Z,4.33
2019-05-05T21:11:14.097Z,4.17
2019-05-05T21:13:45.016Z,4.17
2019-05-05T21:16:14.276Z,3.35
2019-05-05T21:18:43.338Z,4.78
2019-05-05T21:21:17.135Z,3.20
2019-05-05T21:23:50.032Z,4.80
2019-05-05T21:26:26.064Z,5.62
2019-05-05T21:28:54.904Z,5.47
2019-05-05T21:31:24.070Z,4.87
2019-05-05T21:33:54.875Z,4.87
2019-05-05T21:36:24.337Z,4.85
2019-05-05T21:38:54.730Z,4.70
2019-05-05T21:41:24.526Z,4.05
2019-05-05T21:43:54.110Z,5.00
2019-05-05T21:46:24.036Z,4.80
2019-05-05T21:48:54.344Z,5.12
2019-05-05T21:51:41.227Z,5.10
2019-05-05T21:54:30.371Z,4.62
2019-05-05T21:57:34.553Z,3.98
2019-05-05T22:00:05.837Z,4.83
2019-05-05T22:02:36.084Z,7.40
2019-05-05T22:05:05.395Z,5.15
2019-05-05T22:07:34.405Z,7.00
2019-05-05T22:10:04.485Z,6.37
2019-05-05T22:12:36.120Z,6.83
2019-05-05T22:15:04.412Z,5.70
2019-05-05T22:17:33.614Z,5.60
2019-05-05T22:20:10.929Z,5.33
2019-05-05T22:22:41.343Z,5.40
2019-05-05T22:25:10.166Z,7.05
2019-05-05T22:27:39.418Z,6.10
2019-05-05T22:30:10.279Z,6.58
2019-05-05T22:32:39.921Z,5.70
2019-05-05T22:35:08.879Z,7.03
2019-05-05T22:37:37.620Z,5.35
2019-05-05T22:40:06.886Z,6.95
2019-05-05T22:42:35.969Z,5.62
2019-05-05T22:45:05.216Z,6.17
2019-05-05T22:47:34.630Z,7.25
2019-05-05T22:50:04.421Z,8.13
2019-05-05T22:52:34.332Z,6.47
2019-05-05T22:55:04.557Z,7.25
2019-05-05T22:57:34.434Z,7.95
2019-05-05T23:00:03.841Z,6.70
2019-05-05T23:02:34.839Z,6.87
2019-05-05T23:05:10.092Z,6.67
2019-05-05T23:07:38.893Z,6.83
2019-05-05T23:10:07.815Z,9.50
2019-05-05T23:12:36.816Z,6.90
2019-05-05T23:15:06.459Z,7.97
2019-05-05T23:17:43.704Z,8.28
2019-05-05T23:20:30.248Z,8.40
2019-05-05T23:23:07.604Z,8.68
2019-05-05T23:25:39.961Z,7.50
2019-05-05T23:28:08.807Z,8.70
2019-05-05T23:30:41.470Z,9.60
2019-05-05T23:33:08.221Z,8.88
2019-05-05T23:35:37.135Z,7.95
2019-05-05T23:38:05.991Z,9.05
2019-05-05T23:40:34.852Z,7.80
2019-05-05T23:43:04.497Z,8.55
2019-05-05T23:45:34.062Z,7.35
2019-05-05T23:48:03.720Z,9.25
2019-05-05T23:50:33.839Z,8.13
2019-05-05T23:53:02.852Z,8.98
2019-05-05T23:55:31.619Z,8.68
2019-05-05T23:58:00.451Z,10.38
